createdAt,value
2022-08-30T00:00:00.454Z,21.82
2022-08-30T00:02:30.372Z,21.98
2022-08-30T00:05:01.669Z,21.57
2022-08-30T00:07:30.925Z,21.32
2022-08-30T00:09:59.346Z,21.14
2022-08-30T00:12:27.896Z,21.19
2022-08-30T00:14:56.422Z,21.51
2022-08-30T00:17:24.846Z,21.56
2022-08-30T00:19:56.087Z,21.69
2022-08-30T00:22:24.708Z,21.71
2022-08-30T00:24:53.145Z,21.78
2022-08-30T00:27:21.476Z,21.77
2022-08-30T00:29:49.878Z,21.34
2022-08-30T00:32:21.465Z,21.40
2022-08-30T00:34:50.046Z,21.58
2022-08-30T00:37:20.754Z,21.66
2022-08-30T00:39:49.757Z,21.68
2022-08-30T00:42:19.328Z,21.33
2022-08-30T00:44:49.150Z,20.98
2022-08-30T00:47:19.109Z,21.26
2022-08-30T00:49:51.234Z,21.30
2022-08-30T00:52:23.626Z,21.44
2022-08-30T00:54:54.067Z,21.51
2022-08-30T00:57:22.580Z,21.48
2022-08-30T00:59:51.774Z,21.25
2022-08-30T01:02:23.672Z,21.44
2022-08-30T01:04:53.039Z,21.42
2022-08-30T01:07:22.852Z,21.31
2022-08-30T01:09:51.509Z,21.29
2022-08-30T01:12:20.437Z,21.03
2022-08-30T01:14:49.037Z,21.25
2022-08-30T01:17:18.679Z,20.86
2022-08-30T01:19:54.525Z,20.60
2022-08-30T01:22:30.150Z,20.83
2022-08-30T01:25:01.487Z,21.06
2022-08-30T01:27:31.245Z,21.14
2022-08-30T01:30:00.583Z,21.11
2022-08-30T01:32:30.606Z,20.74
2022-08-30T01:34:59.609Z,21.11
2022-08-30T01:37:31.732Z,21.11
2022-08-30T01:40:01.827Z,21.15
2022-08-30T01:42:30.285Z,21.06
2022-08-30T01:44:58.747Z,20.74
2022-08-30T01:47:27.727Z,20.67
2022-08-30T01:49:56.041Z,20.81
2022-08-30T01:52:28.037Z,20.84
2022-08-30T01:54:56.420Z,20.95
2022-08-30T01:57:28.371Z,20.95
2022-08-30T01:59:56.894Z,20.92
2022-08-30T02:02:29.053Z,20.59
2022-08-30T02:05:07.859Z,20.62
2022-08-30T02:07:36.266Z,20.79
2022-08-30T02:10:05.863Z,20.82
2022-08-30T02:12:35.764Z,20.86
2022-08-30T02:15:04.378Z,20.86
2022-08-30T02:17:33.277Z,20.88
2022-08-30T02:20:01.601Z,20.81
2022-08-30T02:22:30.132Z,20.68
2022-08-30T02:24:58.472Z,20.67
2022-08-30T02:27:27.469Z,20.23
2022-08-30T02:29:57.397Z,19.93
2022-08-30T02:32:25.784Z,19.76
2022-08-30T02:34:54.949Z,19.84
2022-08-30T02:37:23.498Z,20.02
2022-08-30T02:39:51.931Z,19.78
2022-08-30T02:42:20.426Z,19.86
2022-08-30T02:44:48.836Z,20.14
2022-08-30T02:47:18.637Z,20.29
2022-08-30T02:49:47.045Z,20.25
2022-08-30T02:52:15.518Z,20.24
2022-08-30T02:54:43.867Z,20.26
2022-08-30T02:57:20.332Z,20.34
2022-08-30T02:59:49.082Z,20.26
2022-08-30T03:02:20.203Z,19.42
2022-08-30T03:04:49.084Z,19.77
2022-08-30T03:07:18.628Z,20.03
2022-08-30T03:09:47.541Z,19.97
2022-08-30T03:12:15.990Z,19.98
2022-08-30T03:14:44.516Z,19.74
2022-08-30T03:17:15.751Z,19.56
2022-08-30T03:19:47.332Z,19.54
2022-08-30T03:22:15.772Z,19.83
2022-08-30T03:24:44.179Z,20.02
2022-08-30T03:27:12.625Z,19.91
2022-08-30T03:29:41.047Z,20.00
2022-08-30T03:32:10.598Z,20.06
2022-08-30T03:34:39.045Z,20.14
2022-08-30T03:37:08.858Z,20.24
2022-08-30T03:39:37.796Z,20.29
2022-08-30T03:42:06.646Z,20.29
2022-08-30T03:44:35.291Z,20.33
2022-08-30T03:47:05.327Z,20.31
2022-08-30T03:49:33.773Z,20.27
2022-08-30T03:52:02.253Z,20.26
2022-08-30T03:54:32.508Z,20.21
2022-08-30T03:57:01.121Z,20.17
2022-08-30T03:59:29.611Z,20.22
2022-08-30T04:01:59.336Z,20.18
2022-08-30T04:04:27.801Z,20.00
2022-08-30T04:06:56.585Z,20.01
2022-08-30T04:09:24.939Z,20.06
2022-08-30T04:11:54.772Z,20.14
2022-08-30T04:14:23.526Z,20.25
2022-08-30T04:16:52.078Z,20.27
2022-08-30T04:19:20.524Z,20.30
2022-08-30T04:21:49.053Z,20.30
2022-08-30T04:24:17.722Z,20.24
2022-08-30T04:26:46.149Z,20.31
2022-08-30T04:29:17.932Z,20.41
2022-08-30T04:31:46.695Z,20.36
2022-08-30T04:34:15.703Z,20.40
2022-08-30T04:36:48.118Z,20.60
2022-08-30T04:39:16.864Z,20.60
2022-08-30T04:41:45.293Z,20.47
2022-08-30T04:44:14.242Z,20.51
2022-08-30T04:46:49.383Z,20.11
2022-08-30T04:49:17.796Z,20.26
2022-08-30T04:51:46.215Z,19.80
2022-08-30T04:54:14.662Z,19.99
2022-08-30T04:56:43.830Z,20.13
2022-08-30T04:59:12.322Z,20.40
2022-08-30T05:01:45.049Z,20.72
2022-08-30T05:04:15.936Z,20.89
2022-08-30T05:06:44.402Z,21.01
2022-08-30T05:09:13.126Z,21.34
2022-08-30T05:11:43.432Z,21.42
2022-08-30T05:14:12.801Z,21.34
2022-08-30T05:16:42.359Z,21.35
2022-08-30T05:19:11.261Z,21.21
2022-08-30T05:21:41.846Z,21.31
2022-08-30T05:24:12.909Z,21.58
2022-08-30T05:26:41.318Z,21.45
2022-08-30T05:29:09.825Z,20.76
2022-08-30T05:31:40.307Z,21.30
2022-08-30T05:34:08.807Z,21.56
2022-08-30T05:36:39.316Z,21.56
2022-08-30T05:39:10.960Z,21.09
2022-08-30T05:41:42.857Z,20.77
2022-08-30T05:44:12.839Z,21.44
2022-08-30T05:46:45.811Z,22.07
2022-08-30T05:49:14.571Z,21.91
2022-08-30T05:51:45.206Z,22.26
2022-08-30T05:54:30.158Z,22.60
2022-08-30T05:56:58.538Z,22.62
2022-08-30T05:59:27.489Z,22.68
2022-08-30T06:01:59.309Z,23.51
2022-08-30T06:04:28.279Z,23.29
2022-08-30T06:06:56.964Z,24.24
2022-08-30T06:09:27.187Z,23.90
2022-08-30T06:11:56.234Z,24.85
2022-08-30T06:14:24.800Z,24.78
2022-08-30T06:16:53.903Z,24.80
2022-08-30T06:19:23.340Z,24.67
2022-08-30T06:21:52.443Z,25.02
2022-08-30T06:24:35.772Z,25.67
2022-08-30T06:27:11.207Z,25.89
2022-08-30T06:29:39.682Z,26.23
2022-08-30T06:32:08.095Z,26.04
2022-08-30T06:34:36.542Z,26.51
2022-08-30T06:37:05.017Z,26.66
2022-08-30T06:39:33.389Z,26.74
2022-08-30T06:42:01.841Z,26.14
2022-08-30T06:44:31.678Z,26.73
2022-08-30T06:47:00.342Z,26.89
2022-08-30T06:49:28.776Z,26.66
2022-08-30T06:51:57.157Z,26.09
2022-08-30T06:54:25.596Z,25.72
2022-08-30T06:56:58.461Z,26.24
2022-08-30T06:59:28.612Z,26.89
2022-08-30T07:01:58.710Z,26.64
2022-08-30T07:04:27.705Z,27.04
2022-08-30T07:06:56.207Z,27.53
2022-08-30T07:09:24.968Z,27.78
2022-08-30T07:11:54.553Z,27.85
2022-08-30T07:14:23.168Z,27.98
2022-08-30T07:16:52.359Z,27.85
2022-08-30T07:19:22.961Z,28.21
2022-08-30T07:21:52.025Z,28.33
2022-08-30T07:24:21.498Z,28.37
2022-08-30T07:26:52.267Z,28.61
2022-08-30T07:29:21.946Z,29.37
2022-08-30T07:31:50.789Z,29.43
2022-08-30T07:34:22.407Z,29.47
2022-08-30T07:36:54.540Z,29.40
2022-08-30T07:39:22.973Z,29.91
2022-08-30T07:41:51.773Z,29.94
2022-08-30T07:44:23.243Z,29.41
2022-08-30T07:46:53.722Z,29.67
2022-08-30T07:49:22.124Z,29.28
2022-08-30T07:51:50.631Z,30.56
2022-08-30T07:54:20.441Z,30.09
2022-08-30T07:56:48.937Z,31.17
2022-08-30T07:59:17.544Z,31.11
2022-08-30T08:01:46.008Z,31.55
2022-08-30T08:04:14.409Z,31.13
2022-08-30T08:06:45.372Z,31.06
2022-08-30T08:09:13.836Z,31.56
2022-08-30T08:11:43.627Z,32.33
2022-08-30T08:14:12.544Z,31.98
2022-08-30T08:16:42.467Z,32.02
2022-08-30T08:19:11.330Z,32.43
2022-08-30T08:21:40.041Z,33.22
2022-08-30T08:24:09.343Z,33.84
2022-08-30T08:26:40.998Z,33.74
2022-08-30T08:29:15.358Z,32.91
2022-08-30T08:31:46.025Z,33.32
2022-08-30T08:34:15.088Z,33.66
2022-08-30T08:36:43.510Z,34.00
2022-08-30T08:39:12.001Z,33.64
2022-08-30T08:41:55.728Z,34.04
2022-08-30T08:47:27.633Z,35.36
2022-08-30T08:49:59.920Z,34.87
2022-08-30T08:52:49.249Z,35.50
2022-08-30T08:55:22.322Z,35.67
2022-08-30T08:57:52.597Z,35.29
2022-08-30T09:00:22.679Z,35.74
2022-08-30T09:02:58.696Z,35.37
2022-08-30T09:05:30.646Z,34.90
2022-08-30T09:08:06.582Z,34.92
2022-08-30T09:10:50.534Z,35.60
2022-08-30T09:13:22.743Z,36.16
2022-08-30T09:15:54.881Z,35.58
2022-08-30T09:21:33.592Z,36.14
2022-08-30T09:24:07.431Z,36.83
2022-08-30T09:26:37.907Z,36.21
2022-08-30T09:29:17.564Z,35.83
2022-08-30T09:32:01.287Z,36.05
2022-08-30T09:34:38.834Z,36.90
2022-08-30T09:37:26.768Z,36.61
2022-08-30T09:39:55.516Z,37.93
2022-08-30T09:42:28.956Z,37.96
2022-08-30T09:45:10.687Z,36.97
2022-08-30T09:47:44.218Z,37.13
2022-08-30T09:50:15.451Z,37.35
2022-08-30T09:52:57.744Z,38.29
2022-08-30T09:55:39.123Z,38.86
2022-08-30T09:58:16.112Z,37.72
2022-08-30T10:00:53.041Z,36.83
2022-08-30T10:03:40.659Z,36.12
2022-08-30T10:06:20.046Z,35.14
2022-08-30T10:08:58.767Z,35.82
2022-08-30T10:11:33.816Z,35.76
2022-08-30T10:14:25.301Z,34.41
2022-08-30T10:17:02.067Z,34.56
2022-08-30T10:19:55.126Z,34.47
2022-08-30T10:22:30.764Z,34.96
2022-08-30T10:25:06.577Z,35.58
2022-08-30T10:27:42.784Z,35.61
2022-08-30T10:30:15.096Z,35.63
2022-08-30T10:32:49.710Z,36.14
2022-08-30T10:35:23.036Z,36.04
2022-08-30T10:37:57.574Z,36.13
2022-08-30T10:40:48.607Z,35.72
2022-08-30T10:43:25.090Z,35.46
2022-08-30T10:45:59.249Z,35.14
2022-08-30T10:48:32.362Z,34.87
2022-08-30T10:51:10.517Z,34.49
2022-08-30T10:53:44.956Z,33.86
2022-08-30T10:56:18.773Z,33.41
2022-08-30T10:58:47.924Z,33.16
2022-08-30T11:01:38.056Z,33.78
2022-08-30T11:05:00.757Z,35.00
2022-08-30T11:07:40.057Z,35.54
2022-08-30T11:10:28.738Z,36.27
2022-08-30T11:13:03.765Z,36.56
2022-08-30T11:15:35.831Z,37.09
2022-08-30T11:18:13.061Z,36.93
2022-08-30T11:20:44.886Z,37.25
2022-08-30T11:23:36.231Z,37.28
2022-08-30T11:26:07.501Z,38.03
2022-08-30T11:29:05.220Z,37.85
2022-08-30T11:31:45.235Z,38.04
2022-08-30T11:34:56.248Z,38.00
2022-08-30T11:37:37.527Z,38.34
2022-08-30T11:40:32.256Z,37.36
2022-08-30T11:43:40.363Z,36.63
2022-08-30T11:46:17.096Z,34.77
2022-08-30T11:48:53.863Z,34.34
2022-08-30T11:52:23.685Z,34.09
2022-08-30T11:54:56.526Z,33.09
2022-08-30T11:57:32.824Z,32.90
2022-08-30T12:00:09.264Z,32.09
2022-08-30T12:02:51.231Z,31.62
2022-08-30T12:05:57.337Z,31.96
2022-08-30T12:08:57.903Z,31.83
2022-08-30T12:12:02.528Z,30.60
2022-08-30T12:14:44.777Z,30.33
2022-08-30T12:18:07.568Z,30.27
2022-08-30T12:20:47.324Z,30.19
2022-08-30T12:23:21.571Z,29.72
2022-08-30T12:25:50.096Z,29.39
2022-08-30T12:28:24.198Z,29.14
2022-08-30T12:30:54.843Z,29.25
2022-08-30T12:33:36.543Z,29.07
2022-08-30T12:36:12.681Z,29.38
2022-08-30T12:38:42.492Z,29.47
2022-08-30T12:41:21.158Z,29.58
2022-08-30T12:43:52.526Z,29.38
2022-08-30T12:46:23.586Z,29.70
2022-08-30T12:48:52.510Z,29.22
2022-08-30T12:51:36.937Z,28.73
2022-08-30T12:54:15.418Z,28.57
2022-08-30T12:56:52.496Z,28.45
2022-08-30T13:00:01.625Z,28.39
2022-08-30T13:02:44.953Z,27.85
2022-08-30T13:05:30.198Z,28.05
2022-08-30T13:08:11.726Z,27.59
2022-08-30T13:10:51.691Z,27.45
2022-08-30T13:13:39.858Z,27.05
2022-08-30T13:16:14.279Z,27.04
2022-08-30T13:18:44.116Z,26.58
2022-08-30T13:21:23.363Z,26.47
2022-08-30T13:23:58.580Z,26.94
2022-08-30T13:26:28.799Z,27.05
2022-08-30T13:28:58.972Z,27.28
2022-08-30T13:31:30.113Z,27.04
2022-08-30T13:34:02.569Z,27.03
2022-08-30T13:36:33.437Z,27.05
2022-08-30T13:39:02.885Z,27.20
2022-08-30T13:41:34.375Z,27.40
2022-08-30T13:44:13.472Z,26.90
2022-08-30T13:46:48.588Z,27.13
2022-08-30T13:52:22.034Z,26.07
2022-08-30T13:54:52.015Z,27.26
2022-08-30T14:00:17.507Z,26.52
2022-08-30T14:02:53.824Z,26.90
2022-08-30T14:11:05.204Z,27.46
2022-08-30T14:13:34.066Z,27.27
2022-08-30T14:18:56.551Z,27.42
2022-08-30T14:21:26.751Z,27.51
2022-08-30T14:23:56.076Z,27.69
2022-08-30T14:26:33.275Z,27.52
2022-08-30T14:29:03.382Z,27.34
2022-08-30T14:31:32.705Z,26.78
2022-08-30T14:34:03.309Z,27.19
2022-08-30T14:36:34.875Z,27.04
2022-08-30T14:39:08.135Z,27.06
2022-08-30T14:41:43.582Z,26.59
2022-08-30T14:44:12.938Z,26.09
2022-08-30T14:46:41.780Z,25.19
2022-08-30T14:49:11.689Z,26.14
2022-08-30T14:51:42.128Z,26.67
2022-08-30T14:54:11.172Z,25.99
2022-08-30T14:56:40.045Z,26.19
2022-08-30T14:59:08.938Z,26.34
2022-08-30T15:01:39.031Z,25.71
2022-08-30T15:04:08.321Z,26.04
2022-08-30T15:06:38.163Z,26.31
2022-08-30T15:09:10.173Z,26.72
2022-08-30T15:11:39.244Z,26.71
2022-08-30T15:14:08.019Z,26.62
2022-08-30T15:16:37.885Z,25.95
2022-08-30T15:19:09.009Z,25.94
2022-08-30T15:21:40.712Z,26.18
2022-08-30T15:24:14.956Z,25.92
2022-08-30T15:26:45.091Z,25.75
2022-08-30T15:29:15.372Z,25.93
2022-08-30T15:31:45.302Z,25.97
2022-08-30T15:34:19.962Z,25.74
2022-08-30T15:36:50.172Z,25.89
2022-08-30T15:39:21.204Z,25.94
2022-08-30T15:41:55.967Z,25.92
2022-08-30T15:44:27.003Z,25.84
2022-08-30T15:46:55.647Z,25.66
2022-08-30T15:49:26.025Z,25.09
2022-08-30T15:51:54.746Z,24.15
2022-08-30T15:54:25.400Z,24.18
2022-08-30T15:56:59.557Z,24.12
2022-08-30T15:59:28.830Z,24.09
2022-08-30T16:01:58.017Z,24.17
2022-08-30T16:04:26.720Z,24.09
2022-08-30T16:06:55.121Z,24.02
2022-08-30T16:09:32.398Z,23.92
2022-08-30T16:12:01.847Z,24.02
2022-08-30T16:14:30.403Z,23.84
2022-08-30T16:16:59.951Z,23.80
2022-08-30T16:19:28.987Z,23.86
2022-08-30T16:21:57.985Z,23.54
2022-08-30T16:24:28.119Z,23.53
2022-08-30T16:26:56.940Z,23.48
2022-08-30T16:29:25.417Z,23.43
2022-08-30T16:31:54.191Z,23.69
2022-08-30T16:34:22.976Z,23.58
2022-08-30T16:36:51.465Z,24.06
2022-08-30T16:39:20.330Z,24.33
2022-08-30T16:41:50.309Z,24.09
2022-08-30T16:44:19.220Z,24.11
2022-08-30T16:46:52.984Z,23.69
2022-08-30T16:49:23.124Z,23.77
2022-08-30T16:51:53.327Z,24.00
2022-08-30T16:54:21.703Z,23.57
2022-08-30T16:56:51.864Z,23.52
2022-08-30T16:59:20.379Z,23.45
2022-08-30T17:01:49.150Z,23.42
2022-08-30T17:04:19.494Z,23.57
2022-08-30T17:06:49.939Z,23.64
2022-08-30T17:09:19.981Z,23.25
2022-08-30T17:11:49.005Z,23.58
2022-08-30T17:14:28.005Z,23.52
2022-08-30T17:17:00.671Z,23.78
2022-08-30T17:19:29.417Z,24.09
2022-08-30T17:21:58.445Z,23.87
2022-08-30T17:24:27.433Z,23.96
2022-08-30T17:26:56.354Z,24.16
2022-08-30T17:29:28.455Z,24.07
2022-08-30T17:31:57.516Z,23.98
2022-08-30T17:34:28.641Z,23.87
2022-08-30T17:36:59.920Z,23.21
2022-08-30T17:39:29.368Z,23.05
2022-08-30T17:41:58.340Z,22.87
2022-08-30T17:44:29.177Z,22.61
2022-08-30T17:46:59.696Z,22.60
2022-08-30T17:49:29.374Z,22.59
2022-08-30T17:51:58.637Z,22.72
2022-08-30T17:54:27.194Z,22.81
2022-08-30T17:56:56.174Z,23.21
2022-08-30T18:02:15.700Z,23.82
2022-08-30T18:04:50.352Z,23.65
2022-08-30T18:07:20.756Z,22.99
2022-08-30T18:09:50.954Z,22.60
2022-08-30T18:12:19.625Z,22.65
2022-08-30T18:14:52.807Z,22.68
2022-08-30T18:17:23.878Z,22.76
2022-08-30T18:19:52.284Z,22.67
2022-08-30T18:22:20.627Z,22.84
2022-08-30T18:24:49.053Z,23.29
2022-08-30T18:27:17.524Z,23.58
2022-08-30T18:29:46.005Z,23.67
2022-08-30T18:32:14.554Z,23.67
2022-08-30T18:34:44.429Z,22.96
2022-08-30T18:37:13.884Z,22.69
2022-08-30T18:39:45.601Z,22.82
2022-08-30T18:42:15.782Z,23.11
2022-08-30T18:44:44.421Z,22.98
2022-08-30T18:47:13.167Z,22.56
2022-08-30T18:49:41.576Z,22.43
2022-08-30T18:52:12.069Z,22.16
2022-08-30T18:54:42.185Z,21.89
2022-08-30T18:57:11.030Z,22.27
2022-08-30T18:59:39.695Z,22.58
2022-08-30T19:02:13.983Z,22.37
2022-08-30T19:04:43.648Z,22.79
2022-08-30T19:07:16.575Z,22.33
2022-08-30T19:09:45.389Z,22.49
2022-08-30T19:12:14.037Z,22.90
2022-08-30T19:14:43.234Z,23.22
2022-08-30T19:17:11.656Z,23.17
2022-08-30T19:19:46.364Z,23.10
2022-08-30T19:22:20.095Z,22.72
2022-08-30T19:24:50.189Z,22.10
2022-08-30T19:27:21.437Z,22.34
2022-08-30T19:29:53.056Z,22.61
2022-08-30T19:32:22.382Z,22.82
2022-08-30T19:34:51.007Z,22.70
2022-08-30T19:37:22.177Z,22.73
2022-08-30T19:39:50.743Z,22.94
2022-08-30T19:42:20.380Z,22.86
2022-08-30T19:44:51.530Z,22.95
2022-08-30T19:47:20.058Z,23.05
2022-08-30T19:49:48.505Z,23.07
2022-08-30T19:52:17.187Z,23.07
2022-08-30T19:54:47.012Z,23.09
2022-08-30T19:57:16.161Z,23.02
2022-08-30T19:59:44.589Z,23.06
2022-08-30T20:02:13.683Z,22.96
2022-08-30T20:04:42.474Z,22.95
2022-08-30T20:07:11.148Z,22.62
2022-08-30T20:09:39.679Z,22.83
2022-08-30T20:12:09.785Z,22.88
2022-08-30T20:14:38.168Z,22.91
2022-08-30T20:17:06.943Z,22.93
2022-08-30T20:19:40.254Z,22.91
2022-08-30T20:22:08.828Z,22.38
2022-08-30T20:24:26.361Z,23.60
2022-08-30T20:24:38.392Z,21.80
2022-08-30T20:27:09.162Z,21.74
2022-08-30T20:29:40.324Z,21.83
2022-08-30T20:32:08.793Z,22.21
2022-08-30T20:34:37.208Z,22.31
2022-08-30T20:37:08.344Z,21.85
2022-08-30T20:39:36.932Z,22.28
2022-08-30T20:42:05.600Z,22.42
2022-08-30T20:44:35.426Z,22.46
2022-08-30T20:47:05.260Z,22.50
2022-08-30T20:49:34.211Z,22.50
2022-08-30T20:52:04.910Z,22.55
2022-08-30T20:54:33.630Z,22.55
2022-08-30T20:57:02.249Z,22.56
2022-08-30T20:59:30.702Z,22.40
2022-08-30T21:02:01.591Z,22.30
2022-08-30T21:04:31.824Z,22.05
2022-08-30T21:07:00.924Z,21.20
2022-08-30T21:09:29.345Z,21.58
2022-08-30T21:11:57.740Z,21.77
2022-08-30T21:14:26.161Z,21.63
2022-08-30T21:16:54.650Z,21.15
2022-08-30T21:19:24.628Z,21.40
2022-08-30T21:21:53.044Z,21.61
2022-08-30T21:24:22.513Z,21.90
2022-08-30T21:26:51.849Z,21.68
2022-08-30T21:29:20.229Z,21.79
2022-08-30T21:31:48.624Z,21.03
2022-08-30T21:34:17.421Z,20.94
2022-08-30T21:36:47.018Z,21.51
2022-08-30T21:39:21.159Z,21.87
2022-08-30T21:41:50.342Z,21.94
2022-08-30T21:44:22.277Z,21.14
2022-08-30T21:46:52.966Z,21.13
2022-08-30T21:49:23.040Z,21.08
2022-08-30T21:51:55.474Z,20.96
2022-08-30T21:54:25.649Z,21.14
2022-08-30T21:57:01.957Z,21.49
2022-08-30T21:59:30.396Z,21.67
2022-08-30T22:02:01.380Z,21.20
2022-08-30T22:04:29.874Z,21.20
2022-08-30T22:07:00.338Z,21.46
2022-08-30T22:09:28.693Z,21.57
2022-08-30T22:11:57.084Z,21.72
2022-08-30T22:14:26.813Z,21.80
2022-08-30T22:16:55.583Z,21.75
2022-08-30T22:19:24.493Z,21.23
2022-08-30T22:21:53.802Z,21.13
2022-08-30T22:24:32.394Z,21.46
2022-08-30T22:27:02.362Z,21.54
2022-08-30T22:29:30.978Z,21.51
2022-08-30T22:31:59.760Z,20.97
2022-08-30T22:34:28.319Z,20.82
2022-08-30T22:36:56.801Z,20.82
2022-08-30T22:39:25.632Z,20.81
2022-08-30T22:41:55.465Z,20.87
2022-08-30T22:44:23.844Z,21.10
2022-08-30T22:46:52.250Z,21.08
2022-08-30T22:49:20.626Z,20.89
2022-08-30T22:51:48.957Z,20.48
2022-08-30T22:54:17.638Z,20.34
2022-08-30T22:56:46.828Z,20.72
2022-08-30T22:59:16.700Z,20.86
2022-08-30T23:01:47.146Z,21.08
2022-08-30T23:04:15.748Z,21.11
2022-08-30T23:06:50.183Z,20.93
2022-08-30T23:09:18.917Z,21.06
2022-08-30T23:11:47.529Z,21.01
2022-08-30T23:14:17.346Z,21.05
2022-08-30T23:16:45.793Z,21.16
2022-08-30T23:19:14.597Z,20.78
2022-08-30T23:21:43.268Z,21.21
2022-08-30T23:24:28.962Z,21.19
2022-08-30T23:27:14.565Z,21.20
2022-08-30T23:30:01.716Z,21.07
2022-08-30T23:32:47.174Z,21.15
2022-08-30T23:35:33.244Z,21.19
2022-08-30T23:38:21.819Z,20.98
2022-08-30T23:41:07.724Z,21.24
2022-08-30T23:43:54.110Z,21.19
2022-08-30T23:46:41.921Z,20.82
2022-08-30T23:49:27.861Z,20.70
2022-08-30T23:52:13.807Z,20.64
2022-08-30T23:54:59.345Z,20.29
2022-08-30T23:57:45.837Z,20.19
